createdAt,value
2018-05-23T00:00:17.487Z,0.00
2018-05-23T00:01:17.430Z,0.00
2018-05-23T00:02:17.372Z,0.00
2018-05-23T00:03:17.311Z,0.00
2018-05-23T00:04:17.252Z,0.00
2018-05-23T00:05:17.193Z,0.00
2018-05-23T00:06:17.131Z,0.00
2018-05-23T00:07:17.074Z,0.00
2018-05-23T00:08:17.013Z,0.00
2018-05-23T00:09:16.954Z,0.00
2018-05-23T00:10:16.901Z,0.00
2018-05-23T00:11:16.837Z,0.00
2018-05-23T00:12:16.777Z,0.00
2018-05-23T00:13:16.716Z,0.00
2018-05-23T00:14:16.656Z,0.00
2018-05-23T00:15:16.599Z,0.00
2018-05-23T00:16:16.537Z,0.00
2018-05-23T00:17:16.479Z,0.00
2018-05-23T00:18:16.422Z,0.00
2018-05-23T00:19:16.358Z,0.00
2018-05-23T00:20:16.299Z,0.00
2018-05-23T00:21:16.238Z,0.00
2018-05-23T00:22:16.180Z,0.00
2018-05-23T00:23:16.120Z,0.00
2018-05-23T00:24:16.061Z,0.00
2018-05-23T00:25:16.005Z,0.00
2018-05-23T00:26:15.938Z,0.00
2018-05-23T00:27:15.881Z,0.00
2018-05-23T00:28:15.831Z,0.00
2018-05-23T00:29:15.763Z,0.00
2018-05-23T00:30:15.705Z,0.00
2018-05-23T00:31:15.641Z,0.00
2018-05-23T00:32:15.582Z,0.00
2018-05-23T00:33:15.523Z,0.00
2018-05-23T00:34:15.465Z,0.00
2018-05-23T00:35:15.408Z,0.00
2018-05-23T00:36:15.346Z,0.00
2018-05-23T00:37:15.289Z,0.00
2018-05-23T00:38:15.224Z,0.00
2018-05-23T00:39:15.165Z,0.00
2018-05-23T00:40:15.105Z,0.00
2018-05-23T00:41:15.043Z,0.00
2018-05-23T00:42:14.988Z,0.00
2018-05-23T00:43:14.928Z,0.00
2018-05-23T00:44:14.867Z,0.00
2018-05-23T00:45:14.815Z,0.00
2018-05-23T00:46:14.748Z,0.00
2018-05-23T00:47:14.687Z,0.00
2018-05-23T00:48:14.642Z,0.00
2018-05-23T00:49:14.569Z,0.00
2018-05-23T00:50:14.653Z,0.00
2018-05-23T00:51:14.445Z,0.00
2018-05-23T00:52:14.383Z,0.00
2018-05-23T00:53:14.332Z,0.00
2018-05-23T00:54:14.270Z,0.00
2018-05-23T00:55:14.214Z,0.00
2018-05-23T00:56:14.151Z,0.00
2018-05-23T00:57:14.090Z,0.00
2018-05-23T00:58:14.029Z,0.00
2018-05-23T00:59:13.969Z,0.00
2018-05-23T01:00:13.909Z,0.00
2018-05-23T01:01:13.849Z,0.00
2018-05-23T01:02:13.798Z,0.00
2018-05-23T01:03:13.732Z,0.00
2018-05-23T01:04:13.675Z,0.00
2018-05-23T01:05:13.608Z,0.00
2018-05-23T01:06:13.553Z,0.00
2018-05-23T01:07:13.491Z,0.00
2018-05-23T01:08:13.435Z,0.00
2018-05-23T01:09:13.386Z,0.00
2018-05-23T01:10:13.310Z,0.00
2018-05-23T01:11:13.250Z,0.00
2018-05-23T01:12:13.190Z,0.00
2018-05-23T01:13:13.134Z,0.00
2018-05-23T01:14:13.076Z,0.00
2018-05-23T01:15:13.013Z,0.00
2018-05-23T01:16:12.954Z,0.00
2018-05-23T01:17:12.916Z,0.00
2018-05-23T01:18:12.837Z,0.00
2018-05-23T01:19:12.771Z,0.00
2018-05-23T01:20:12.713Z,0.00
2018-05-23T01:21:12.653Z,0.00
2018-05-23T01:22:12.589Z,0.00
2018-05-23T01:23:12.532Z,0.00
2018-05-23T01:24:12.469Z,0.00
2018-05-23T01:25:12.410Z,0.00
2018-05-23T01:26:12.351Z,0.00
2018-05-23T01:27:12.291Z,0.00
2018-05-23T01:28:12.233Z,0.00
2018-05-23T01:29:12.171Z,0.00
2018-05-23T01:30:12.111Z,0.00
2018-05-23T01:31:12.052Z,0.00
2018-05-23T01:32:11.983Z,0.00
2018-05-23T01:33:11.932Z,0.00
2018-05-23T01:34:11.869Z,0.00
2018-05-23T01:35:11.811Z,0.00
2018-05-23T01:36:11.749Z,0.00
2018-05-23T01:37:11.687Z,0.00
2018-05-23T01:38:11.634Z,0.00
2018-05-23T01:39:11.572Z,0.00
2018-05-23T01:40:11.509Z,0.00
2018-05-23T01:41:11.449Z,0.00
2018-05-23T01:42:11.387Z,0.00
2018-05-23T01:43:11.327Z,0.00
2018-05-23T01:44:11.269Z,0.00
2018-05-23T01:45:11.209Z,0.00
2018-05-23T01:46:11.146Z,0.00
2018-05-23T01:47:11.090Z,0.00
2018-05-23T01:48:11.027Z,0.00
2018-05-23T01:49:10.967Z,0.00
2018-05-23T01:50:10.903Z,0.00
2018-05-23T01:51:10.844Z,0.00
2018-05-23T01:52:10.788Z,0.00
2018-05-23T01:53:10.728Z,0.00
2018-05-23T01:54:10.662Z,0.00
2018-05-23T01:55:10.604Z,0.00
2018-05-23T01:56:10.543Z,0.00
2018-05-23T01:57:10.482Z,0.00
2018-05-23T01:58:10.420Z,0.00
2018-05-23T01:59:10.362Z,0.00
2018-05-23T02:00:10.303Z,0.00
2018-05-23T02:01:10.240Z,0.00
2018-05-23T02:02:10.179Z,0.00
2018-05-23T02:03:10.119Z,0.00
2018-05-23T02:04:10.057Z,0.00
2018-05-23T02:05:10.000Z,0.00
2018-05-23T02:06:09.936Z,0.00
2018-05-23T02:07:09.877Z,0.00
2018-05-23T02:08:09.817Z,0.00
2018-05-23T02:09:09.758Z,0.00
2018-05-23T02:10:09.701Z,0.00
2018-05-23T02:11:09.637Z,0.00
2018-05-23T02:12:09.576Z,0.00
2018-05-23T02:13:09.517Z,0.00
2018-05-23T02:14:09.453Z,0.00
2018-05-23T02:15:09.394Z,0.00
2018-05-23T02:16:09.332Z,0.00
2018-05-23T02:17:09.275Z,0.00
2018-05-23T02:18:09.217Z,0.00
2018-05-23T02:19:09.151Z,0.00
2018-05-23T02:20:09.093Z,0.00
2018-05-23T02:21:09.032Z,0.00
2018-05-23T02:22:08.973Z,0.00
2018-05-23T02:23:08.910Z,0.00
2018-05-23T02:24:08.848Z,0.00
2018-05-23T02:25:08.798Z,0.00
2018-05-23T02:26:08.724Z,0.00
2018-05-23T02:27:08.665Z,0.00
2018-05-23T02:28:08.607Z,0.00
2018-05-23T02:29:08.544Z,0.00
2018-05-23T02:30:08.484Z,0.00
2018-05-23T02:31:08.424Z,0.00
2018-05-23T02:32:08.369Z,0.00
2018-05-23T02:33:08.302Z,0.00
2018-05-23T02:34:08.240Z,0.00
2018-05-23T02:35:08.179Z,0.00
2018-05-23T02:36:08.119Z,0.00
2018-05-23T02:37:08.058Z,0.00
2018-05-23T02:38:07.999Z,0.00
2018-05-23T02:39:07.946Z,0.00
2018-05-23T02:40:07.884Z,0.00
2018-05-23T02:41:07.817Z,0.00
2018-05-23T02:42:07.761Z,0.00
2018-05-23T02:43:07.702Z,0.00
2018-05-23T02:44:07.634Z,0.00
2018-05-23T02:45:07.576Z,0.00
2018-05-23T02:46:07.516Z,0.00
2018-05-23T02:47:07.487Z,0.00
2018-05-23T02:48:07.388Z,0.00
2018-05-23T02:49:07.331Z,5.63
2018-05-23T02:50:07.268Z,5.63
2018-05-23T02:51:07.210Z,5.63
2018-05-23T02:52:07.150Z,5.63
2018-05-23T02:53:07.088Z,5.63
2018-05-23T02:54:07.021Z,5.63
2018-05-23T02:55:06.962Z,5.63
2018-05-23T02:56:06.904Z,5.63
2018-05-23T02:57:06.844Z,11.25
2018-05-23T02:58:06.780Z,11.25
2018-05-23T02:59:06.724Z,11.25
2018-05-23T03:00:06.660Z,11.25
2018-05-23T03:01:06.601Z,11.25
2018-05-23T03:02:06.536Z,11.25
2018-05-23T03:03:06.548Z,16.88
2018-05-23T03:04:06.421Z,16.88
2018-05-23T03:05:06.365Z,16.88
2018-05-23T03:06:06.289Z,16.88
2018-05-23T03:07:06.233Z,22.50
2018-05-23T03:08:06.175Z,22.50
2018-05-23T03:09:06.108Z,22.50
2018-05-23T03:10:06.051Z,22.50
2018-05-23T03:11:05.993Z,28.13
2018-05-23T03:12:05.928Z,28.13
2018-05-23T03:13:05.867Z,28.13
2018-05-23T03:14:05.809Z,33.75
2018-05-23T03:15:05.748Z,33.75
2018-05-23T03:16:05.686Z,33.75
2018-05-23T03:17:05.622Z,33.75
2018-05-23T03:18:05.557Z,39.38
2018-05-23T03:19:05.500Z,39.38
2018-05-23T03:20:05.437Z,39.38
2018-05-23T03:21:05.383Z,45.00
2018-05-23T03:22:05.329Z,45.00
2018-05-23T03:23:05.256Z,45.00
2018-05-23T03:24:05.198Z,50.63
2018-05-23T03:25:05.139Z,50.63
2018-05-23T03:26:05.088Z,50.63
2018-05-23T03:27:05.013Z,56.25
2018-05-23T03:28:04.955Z,56.25
2018-05-23T03:29:04.891Z,61.88
2018-05-23T03:30:04.830Z,61.88
2018-05-23T03:31:04.782Z,61.88
2018-05-23T03:32:04.704Z,67.50
2018-05-23T03:33:04.649Z,67.50
2018-05-23T03:34:04.593Z,67.50
2018-05-23T03:35:04.524Z,73.13
2018-05-23T03:36:04.467Z,73.13
2018-05-23T03:37:04.405Z,78.75
2018-05-23T03:38:04.341Z,78.75
2018-05-23T03:39:04.281Z,78.75
2018-05-23T03:40:04.220Z,84.38
2018-05-23T03:41:04.159Z,84.38
2018-05-23T03:42:04.096Z,90.00
2018-05-23T03:43:04.038Z,90.00
2018-05-23T03:44:03.976Z,90.00
2018-05-23T03:45:03.916Z,95.63
2018-05-23T03:46:03.855Z,95.63
2018-05-23T03:47:03.797Z,101.25
2018-05-23T03:48:03.738Z,101.25
2018-05-23T03:49:03.672Z,106.88
2018-05-23T03:50:03.610Z,106.88
2018-05-23T03:51:03.549Z,106.88
2018-05-23T03:52:03.488Z,112.50
2018-05-23T03:53:03.426Z,112.50
2018-05-23T03:54:03.928Z,118.13
2018-05-23T03:55:03.315Z,118.13
2018-05-23T03:56:03.246Z,118.13
2018-05-23T03:57:03.186Z,123.75
2018-05-23T03:58:03.121Z,123.75
2018-05-23T03:59:03.060Z,129.38
2018-05-23T04:00:03.005Z,129.38
2018-05-23T04:01:02.941Z,129.38
2018-05-23T04:02:02.875Z,135.00
2018-05-23T04:03:02.820Z,135.00
2018-05-23T04:04:02.761Z,135.00
2018-05-23T04:05:02.702Z,140.63
2018-05-23T04:06:02.636Z,140.63
2018-05-23T04:07:02.575Z,140.63
2018-05-23T04:08:02.515Z,146.25
2018-05-23T04:09:02.455Z,146.25
2018-05-23T04:10:02.389Z,146.25
2018-05-23T04:11:02.323Z,146.25
2018-05-23T04:12:02.273Z,151.88
2018-05-23T04:13:02.207Z,151.88
2018-05-23T04:14:02.148Z,151.88
2018-05-23T04:15:02.095Z,151.88
2018-05-23T04:16:02.026Z,157.50
2018-05-23T04:17:01.974Z,157.50
2018-05-23T04:18:01.909Z,157.50
2018-05-23T04:19:01.844Z,157.50
2018-05-23T04:20:01.783Z,157.50
2018-05-23T04:21:01.726Z,163.13
2018-05-23T04:22:01.658Z,163.13
2018-05-23T04:23:01.598Z,163.13
2018-05-23T04:24:01.542Z,168.75
2018-05-23T04:25:01.588Z,168.75
2018-05-23T04:26:01.419Z,168.75
2018-05-23T04:27:01.360Z,174.38
2018-05-23T04:28:01.295Z,174.38
2018-05-23T04:29:01.236Z,180.00
2018-05-23T04:30:01.181Z,174.38
2018-05-23T04:31:01.114Z,180.00
2018-05-23T04:32:01.050Z,185.63
2018-05-23T04:33:00.995Z,180.00
2018-05-23T04:34:00.929Z,174.38
2018-05-23T04:35:00.873Z,174.38
2018-05-23T04:36:00.808Z,174.38
2018-05-23T04:37:00.742Z,180.00
2018-05-23T04:38:00.688Z,185.63
2018-05-23T04:39:00.636Z,185.63
2018-05-23T04:40:00.571Z,185.63
2018-05-23T04:41:00.510Z,196.88
2018-05-23T04:42:00.448Z,202.50
2018-05-23T04:43:00.379Z,202.50
2018-05-23T04:44:00.330Z,208.13
2018-05-23T04:45:00.260Z,208.13
2018-05-23T04:46:00.200Z,213.75
2018-05-23T04:47:00.143Z,213.75
2018-05-23T04:48:00.080Z,219.38
2018-05-23T04:49:00.023Z,230.63
2018-05-23T04:49:59.962Z,225.00
2018-05-23T04:50:59.907Z,230.63
2018-05-23T04:51:59.840Z,230.63
2018-05-23T04:52:59.780Z,236.25
2018-05-23T04:53:59.722Z,236.25
2018-05-23T04:54:59.655Z,236.25
2018-05-23T04:55:59.595Z,236.25
2018-05-23T04:56:59.534Z,241.88
2018-05-23T04:57:59.475Z,258.75
2018-05-23T04:58:59.415Z,292.50
2018-05-23T04:59:59.352Z,320.63
2018-05-23T05:00:59.295Z,343.13
2018-05-23T05:01:59.231Z,399.38
2018-05-23T05:02:59.176Z,405.00
2018-05-23T05:03:59.113Z,388.13
2018-05-23T05:04:59.052Z,393.75
2018-05-23T05:05:58.991Z,410.63
2018-05-23T05:06:58.929Z,427.50
2018-05-23T05:07:58.870Z,427.50
2018-05-23T05:08:58.813Z,399.38
2018-05-23T05:09:58.818Z,388.13
2018-05-23T05:10:58.692Z,405.00
2018-05-23T05:11:58.631Z,472.50
2018-05-23T05:12:58.573Z,523.13
2018-05-23T05:13:58.510Z,523.13
2018-05-23T05:14:58.451Z,517.50
2018-05-23T05:15:58.388Z,478.13
2018-05-23T05:16:58.336Z,393.75
2018-05-23T05:17:58.276Z,371.25
2018-05-23T05:18:58.217Z,382.50
2018-05-23T05:19:58.163Z,348.75
2018-05-23T05:20:58.097Z,298.13
2018-05-23T05:21:58.042Z,286.88
2018-05-23T05:22:57.983Z,286.88
2018-05-23T05:23:57.919Z,286.88
2018-05-23T05:24:57.883Z,286.88
2018-05-23T05:25:57.804Z,286.88
2018-05-23T05:26:57.744Z,286.88
2018-05-23T05:27:57.684Z,286.88
2018-05-23T05:28:57.627Z,286.88
2018-05-23T05:29:57.597Z,286.88
2018-05-23T05:30:57.512Z,292.50
2018-05-23T05:31:57.451Z,292.50
2018-05-23T05:32:57.395Z,292.50
2018-05-23T05:33:57.336Z,298.13
2018-05-23T05:34:57.273Z,298.13
2018-05-23T05:35:57.216Z,298.13
2018-05-23T05:36:57.159Z,303.75
2018-05-23T05:37:57.104Z,303.75
2018-05-23T05:38:57.044Z,309.38
2018-05-23T05:39:56.977Z,309.38
2018-05-23T05:40:56.919Z,309.38
2018-05-23T05:41:56.859Z,315.00
2018-05-23T05:42:56.802Z,315.00
2018-05-23T05:43:56.747Z,315.00
2018-05-23T05:44:56.684Z,320.63
2018-05-23T05:45:56.622Z,315.00
2018-05-23T05:46:56.571Z,320.63
2018-05-23T05:47:56.514Z,326.25
2018-05-23T05:48:56.446Z,326.25
2018-05-23T05:49:56.395Z,331.88
2018-05-23T05:50:56.328Z,337.50
2018-05-23T05:51:56.265Z,337.50
2018-05-23T05:52:56.207Z,343.13
2018-05-23T05:53:56.151Z,348.75
2018-05-23T05:54:56.098Z,348.75
2018-05-23T05:55:56.032Z,354.38
2018-05-23T05:56:55.978Z,365.63
2018-05-23T05:57:55.916Z,360.00
2018-05-23T05:58:55.854Z,360.00
2018-05-23T05:59:55.796Z,365.63
2018-05-23T06:00:55.738Z,365.63
2018-05-23T06:01:55.764Z,365.63
2018-05-23T06:02:55.620Z,365.63
2018-05-23T06:03:55.565Z,365.63
2018-05-23T06:04:55.507Z,365.63
2018-05-23T06:05:55.466Z,365.63
2018-05-23T06:06:55.382Z,371.25
2018-05-23T06:07:55.329Z,371.25
2018-05-23T06:08:55.272Z,371.25
2018-05-23T06:09:55.268Z,360.00
2018-05-23T06:10:55.153Z,365.63
2018-05-23T06:11:55.090Z,371.25
2018-05-23T06:12:55.031Z,371.25
2018-05-23T06:13:54.976Z,371.25
2018-05-23T06:14:54.915Z,371.25
2018-05-23T06:15:54.855Z,365.63
2018-05-23T06:16:54.799Z,365.63
2018-05-23T06:17:54.745Z,365.63
2018-05-23T06:18:54.675Z,360.00
2018-05-23T06:19:54.620Z,371.25
2018-05-23T06:20:54.561Z,376.88
2018-05-23T06:21:54.504Z,376.88
2018-05-23T06:22:54.447Z,376.88
2018-05-23T06:23:54.386Z,376.88
2018-05-23T06:24:54.327Z,382.50
2018-05-23T06:25:54.272Z,382.50
2018-05-23T06:26:54.212Z,382.50
2018-05-23T06:27:54.152Z,388.13
2018-05-23T06:28:54.098Z,388.13
2018-05-23T06:29:54.038Z,388.13
2018-05-23T06:30:53.978Z,388.13
2018-05-23T06:31:53.914Z,388.13
2018-05-23T06:32:53.861Z,388.13
2018-05-23T06:33:53.804Z,388.13
2018-05-23T06:34:53.747Z,388.13
2018-05-23T06:35:53.693Z,388.13
2018-05-23T06:36:53.650Z,388.13
2018-05-23T06:37:53.652Z,393.75
2018-05-23T06:38:53.510Z,393.75
2018-05-23T06:39:53.457Z,388.13
2018-05-23T06:40:53.397Z,393.75
2018-05-23T06:41:53.335Z,393.75
2018-05-23T06:42:53.275Z,393.75
2018-05-23T06:43:53.219Z,399.38
2018-05-23T06:44:53.162Z,399.38
2018-05-23T06:45:53.110Z,399.38
2018-05-23T06:46:53.052Z,399.38
2018-05-23T06:47:52.989Z,399.38
2018-05-23T06:48:52.932Z,399.38
2018-05-23T06:49:52.874Z,399.38
2018-05-23T06:50:52.811Z,393.75
2018-05-23T06:51:52.756Z,399.38
2018-05-23T06:52:52.699Z,399.38
2018-05-23T06:53:52.644Z,405.00
2018-05-23T06:54:52.587Z,405.00
2018-05-23T06:55:52.523Z,405.00
2018-05-23T06:56:52.466Z,410.63
2018-05-23T06:57:52.412Z,410.63
2018-05-23T06:58:52.351Z,405.00
2018-05-23T06:59:52.296Z,405.00
2018-05-23T07:00:52.243Z,405.00
2018-05-23T07:01:52.176Z,399.38
2018-05-23T07:02:52.118Z,405.00
2018-05-23T07:03:52.063Z,399.38
2018-05-23T07:04:52.005Z,405.00
2018-05-23T07:05:51.961Z,405.00
2018-05-23T07:06:51.892Z,405.00
2018-05-23T07:07:51.833Z,405.00
2018-05-23T07:08:51.777Z,405.00
2018-05-23T07:09:51.715Z,399.38
2018-05-23T07:10:51.658Z,405.00
2018-05-23T07:11:51.604Z,399.38
2018-05-23T07:12:51.545Z,399.38
2018-05-23T07:13:51.483Z,399.38
2018-05-23T07:14:51.429Z,399.38
2018-05-23T07:15:51.374Z,399.38
2018-05-23T07:16:51.313Z,399.38
2018-05-23T07:17:51.370Z,399.38
2018-05-23T07:18:51.988Z,382.50
2018-05-23T07:19:52.073Z,376.88
2018-05-23T07:20:51.200Z,376.88
2018-05-23T07:21:51.297Z,388.13
2018-05-23T07:22:51.109Z,382.50
2018-05-23T07:23:51.300Z,388.13
2018-05-23T07:24:51.176Z,388.13
2018-05-23T07:25:50.909Z,388.13
2018-05-23T07:26:51.131Z,388.13
2018-05-23T07:27:51.010Z,388.13
2018-05-23T07:28:50.646Z,388.13
2018-05-23T07:29:50.570Z,382.50
2018-05-23T07:30:50.517Z,382.50
2018-05-23T07:31:50.597Z,382.50
2018-05-23T07:32:50.412Z,388.13
2018-05-23T07:33:50.395Z,388.13
2018-05-23T07:34:50.299Z,388.13
2018-05-23T07:35:50.227Z,393.75
2018-05-23T07:36:50.177Z,393.75
2018-05-23T07:37:50.124Z,393.75
2018-05-23T07:38:50.070Z,393.75
2018-05-23T07:39:50.012Z,393.75
2018-05-23T07:40:49.943Z,399.38
2018-05-23T07:41:49.897Z,399.38
2018-05-23T07:42:49.827Z,399.38
2018-05-23T07:43:49.778Z,405.00
2018-05-23T07:44:49.743Z,405.00
2018-05-23T07:45:49.740Z,405.00
2018-05-23T07:46:49.621Z,405.00
2018-05-23T07:47:49.539Z,405.00
2018-05-23T07:48:49.478Z,410.63
2018-05-23T07:49:49.435Z,410.63
2018-05-23T07:50:49.370Z,410.63
2018-05-23T07:51:49.319Z,410.63
2018-05-23T07:52:49.257Z,410.63
2018-05-23T07:53:49.197Z,410.63
2018-05-23T07:54:49.157Z,421.88
2018-05-23T07:55:49.084Z,416.25
2018-05-23T07:56:49.025Z,416.25
2018-05-23T07:57:48.972Z,421.88
2018-05-23T07:58:48.916Z,427.50
2018-05-23T07:59:48.856Z,427.50
2018-05-23T08:00:48.801Z,421.88
2018-05-23T08:01:48.743Z,405.00
2018-05-23T08:02:48.687Z,427.50
2018-05-23T08:03:48.632Z,427.50
2018-05-23T08:04:48.576Z,421.88
2018-05-23T08:05:48.516Z,421.88
2018-05-23T08:06:48.464Z,410.63
2018-05-23T08:07:48.412Z,416.25
2018-05-23T08:08:48.357Z,421.88
2018-05-23T08:09:48.293Z,410.63
2018-05-23T08:10:48.237Z,433.13
2018-05-23T08:11:48.199Z,433.13
2018-05-23T08:12:48.122Z,433.13
2018-05-23T08:13:48.063Z,421.88
2018-05-23T08:14:48.005Z,433.13
2018-05-23T08:15:47.954Z,433.13
2018-05-23T08:16:47.897Z,438.75
2018-05-23T08:17:47.851Z,438.75
2018-05-23T08:18:47.786Z,438.75
2018-05-23T08:19:47.724Z,438.75
2018-05-23T08:20:47.732Z,444.38
2018-05-23T08:21:47.614Z,433.13
2018-05-23T08:22:47.564Z,421.88
2018-05-23T08:23:47.502Z,416.25
2018-05-23T08:24:47.444Z,421.88
2018-05-23T08:25:47.388Z,433.13
2018-05-23T08:26:47.330Z,427.50
2018-05-23T08:27:47.279Z,421.88
2018-05-23T08:28:47.220Z,427.50
2018-05-23T08:29:47.222Z,427.50
2018-05-23T08:30:47.149Z,421.88
2018-05-23T08:31:47.052Z,427.50
2018-05-23T08:32:46.994Z,427.50
2018-05-23T08:33:46.936Z,421.88
2018-05-23T08:34:46.881Z,427.50
2018-05-23T08:35:46.842Z,427.50
2018-05-23T08:36:46.771Z,427.50
2018-05-23T08:37:55.370Z,427.50
2018-05-23T08:39:41.015Z,433.13
2018-05-23T08:40:48.577Z,427.50
2018-05-23T08:42:42.884Z,433.13
2018-05-23T08:43:34.158Z,433.13
2018-05-23T08:45:28.471Z,433.13
2018-05-23T08:46:28.381Z,433.13
2018-05-23T08:48:23.195Z,427.50
2018-05-23T08:49:31.779Z,427.50
2018-05-23T08:51:17.417Z,433.13
2018-05-23T08:52:24.976Z,433.13
2018-05-23T08:54:19.269Z,433.13
2018-05-23T08:55:10.562Z,427.50
2018-05-23T08:57:03.983Z,416.25
2018-05-23T08:58:03.794Z,416.25
2018-05-23T08:59:57.122Z,416.25
2018-05-23T09:00:57.032Z,416.25
2018-05-23T09:02:51.342Z,427.50
2018-05-23T09:03:51.254Z,427.50
2018-05-23T09:05:46.166Z,427.50
2018-05-23T09:06:45.469Z,427.50
2018-05-23T09:08:39.785Z,427.50
2018-05-23T09:09:39.698Z,427.50
2018-05-23T09:11:33.026Z,427.50
2018-05-23T09:12:32.992Z,427.50
2018-05-23T09:14:27.259Z,433.13
2018-05-23T09:15:27.156Z,433.13
2018-05-23T09:17:21.453Z,433.13
2018-05-23T09:18:21.372Z,433.13
2018-05-23T09:20:15.677Z,438.75
2018-05-23T09:21:15.589Z,438.75
2018-05-23T09:23:09.902Z,444.38
2018-05-23T09:24:12.468Z,455.63
2018-05-23T09:26:03.138Z,461.25
2018-05-23T09:27:03.048Z,466.88
2018-05-23T09:28:56.415Z,472.50
2018-05-23T09:29:56.308Z,472.50
2018-05-23T09:31:50.633Z,478.13
2018-05-23T09:32:50.516Z,483.75
2018-05-23T09:34:44.839Z,495.00
2018-05-23T09:35:44.737Z,495.00
2018-05-23T09:37:39.041Z,506.25
2018-05-23T09:38:38.952Z,511.88
2018-05-23T09:40:32.269Z,534.38
2018-05-23T09:41:32.187Z,534.38
2018-05-23T09:43:25.648Z,545.63
2018-05-23T09:44:25.438Z,551.25
2018-05-23T09:46:18.935Z,556.88
2018-05-23T09:47:18.843Z,562.50
2018-05-23T09:49:13.148Z,562.50
2018-05-23T09:50:13.064Z,556.88
2018-05-23T09:52:08.351Z,556.88
2018-05-23T09:53:08.270Z,551.25
2018-05-23T09:55:01.628Z,540.00
2018-05-23T09:56:01.507Z,534.38
2018-05-23T09:57:54.828Z,573.75
2018-05-23T09:58:54.744Z,590.63
2018-05-23T09:59:54.683Z,590.63
2018-05-23T10:00:54.625Z,596.25
2018-05-23T10:01:54.568Z,596.25
2018-05-23T10:02:54.518Z,596.25
2018-05-23T10:03:54.473Z,596.25
2018-05-23T10:04:54.405Z,601.88
2018-05-23T10:05:54.347Z,601.88
2018-05-23T10:06:54.292Z,607.50
2018-05-23T10:07:54.236Z,613.13
2018-05-23T10:08:54.177Z,618.75
2018-05-23T10:09:54.129Z,630.00
2018-05-23T10:10:54.097Z,630.00
2018-05-23T10:11:54.015Z,641.25
2018-05-23T10:12:53.962Z,641.25
2018-05-23T10:13:53.905Z,663.75
2018-05-23T10:14:53.847Z,675.00
2018-05-23T10:15:53.792Z,663.75
2018-05-23T10:16:53.769Z,663.75
2018-05-23T10:17:53.682Z,669.38
2018-05-23T10:18:53.628Z,680.63
2018-05-23T10:19:53.585Z,691.88
2018-05-23T10:20:53.517Z,703.13
2018-05-23T10:21:53.465Z,708.75
2018-05-23T10:22:53.410Z,703.13
2018-05-23T10:23:53.355Z,703.13
2018-05-23T10:24:53.313Z,703.13
2018-05-23T10:25:53.250Z,708.75
2018-05-23T10:26:53.197Z,703.13
2018-05-23T10:27:53.132Z,703.13
2018-05-23T10:28:53.078Z,703.13
2018-05-23T10:29:53.019Z,697.50
2018-05-23T10:30:52.966Z,703.13
2018-05-23T10:31:52.913Z,691.88
2018-05-23T10:32:52.855Z,691.88
2018-05-23T10:33:52.804Z,691.88
2018-05-23T10:34:52.751Z,697.50
2018-05-23T10:35:52.693Z,697.50
2018-05-23T10:36:52.639Z,697.50
2018-05-23T10:37:52.590Z,691.88
2018-05-23T10:38:52.539Z,686.25
2018-05-23T10:39:52.476Z,658.13
2018-05-23T10:40:52.419Z,641.25
2018-05-23T10:41:52.373Z,635.63
2018-05-23T10:42:52.313Z,635.63
2018-05-23T10:43:52.254Z,635.63
2018-05-23T10:44:52.204Z,641.25
2018-05-23T10:45:52.151Z,630.00
2018-05-23T10:46:52.088Z,635.63
2018-05-23T10:47:52.038Z,630.00
2018-05-23T10:48:51.980Z,624.38
2018-05-23T10:49:51.945Z,624.38
2018-05-23T10:50:51.895Z,630.00
2018-05-23T10:51:51.832Z,641.25
2018-05-23T10:52:51.784Z,652.50
2018-05-23T10:53:51.712Z,658.13
2018-05-23T10:54:51.663Z,669.38
2018-05-23T10:55:51.626Z,663.75
2018-05-23T10:56:51.553Z,663.75
2018-05-23T10:57:51.487Z,663.75
2018-05-23T10:58:51.456Z,658.13
2018-05-23T10:59:51.404Z,658.13
2018-05-23T11:00:51.319Z,652.50
2018-05-23T11:01:51.266Z,658.13
2018-05-23T11:02:51.303Z,658.13
2018-05-23T11:03:51.166Z,663.75
2018-05-23T11:04:51.102Z,675.00
2018-05-23T11:05:51.112Z,680.63
2018-05-23T11:06:51.004Z,680.63
2018-05-23T11:07:50.952Z,691.88
2018-05-23T11:08:50.912Z,691.88
2018-05-23T11:09:50.846Z,708.75
2018-05-23T11:10:50.787Z,708.75
2018-05-23T11:11:50.736Z,714.38
2018-05-23T11:12:50.676Z,714.38
2018-05-23T11:13:50.633Z,736.88
2018-05-23T11:14:50.594Z,759.38
2018-05-23T11:15:50.520Z,849.38
2018-05-23T11:16:50.471Z,995.63
2018-05-23T11:17:50.419Z,2593.13
2018-05-23T11:18:50.371Z,4314.38
2018-05-23T11:19:50.313Z,4398.75
2018-05-23T11:20:50.261Z,4471.88
2018-05-23T11:21:50.228Z,4539.38
2018-05-23T11:22:50.164Z,4713.75
2018-05-23T11:23:50.136Z,4685.63
2018-05-23T11:24:50.063Z,4657.50
2018-05-23T11:25:50.008Z,4443.75
2018-05-23T11:26:49.963Z,4365.00
2018-05-23T11:27:49.934Z,4128.75
2018-05-23T11:28:49.868Z,4286.25
2018-05-23T11:29:49.893Z,4190.63
2018-05-23T11:30:49.777Z,4145.63
2018-05-23T11:31:49.718Z,4145.63
2018-05-23T11:32:49.673Z,4168.13
2018-05-23T11:33:49.622Z,4207.50
2018-05-23T11:34:49.609Z,4320.00
2018-05-23T11:35:49.541Z,4516.88
2018-05-23T11:36:49.480Z,4696.88
2018-05-23T11:37:49.438Z,4798.13
2018-05-23T11:38:49.395Z,4966.88
2018-05-23T11:39:49.377Z,5056.88
2018-05-23T11:40:49.295Z,5045.63
2018-05-23T11:41:49.265Z,4876.88
2018-05-23T11:42:49.204Z,4635.00
2018-05-23T11:43:49.159Z,4460.63
2018-05-23T11:44:49.114Z,4151.25
2018-05-23T11:45:49.069Z,3870.00
2018-05-23T11:46:49.027Z,3577.50
2018-05-23T11:47:48.982Z,3313.13
2018-05-23T11:48:48.937Z,3211.88
2018-05-23T11:49:48.894Z,3217.50
2018-05-23T11:50:48.852Z,3391.88
2018-05-23T11:51:48.807Z,3571.88
2018-05-23T11:52:48.761Z,3909.38
2018-05-23T11:53:48.715Z,4353.75
2018-05-23T11:54:48.667Z,4584.38
2018-05-23T11:55:48.624Z,4803.75
2018-05-23T11:56:48.593Z,5028.75
2018-05-23T11:57:48.542Z,5028.75
2018-05-23T11:58:48.501Z,5017.50
2018-05-23T11:59:48.458Z,4781.25
2018-05-23T12:00:48.413Z,4691.25
2018-05-23T12:01:48.375Z,4539.38
2018-05-23T12:02:48.323Z,4185.00
2018-05-23T12:03:48.283Z,4213.13
2018-05-23T12:04:48.291Z,4005.00
2018-05-23T12:05:48.197Z,3526.88
2018-05-23T12:06:48.157Z,3622.50
2018-05-23T12:07:48.115Z,3819.38
2018-05-23T12:08:48.070Z,3757.50
2018-05-23T12:09:48.028Z,3763.13
2018-05-23T12:10:47.988Z,3735.00
2018-05-23T12:11:47.949Z,3825.00
2018-05-23T12:12:47.902Z,3937.50
2018-05-23T12:13:47.861Z,4128.75
2018-05-23T12:14:47.820Z,4179.38
2018-05-23T12:15:47.774Z,4258.13
2018-05-23T12:16:47.738Z,4162.50
2018-05-23T12:17:47.688Z,4173.75
2018-05-23T12:18:47.648Z,4308.75
2018-05-23T12:19:47.608Z,4235.63
2018-05-23T12:20:47.563Z,4370.63
2018-05-23T12:21:47.522Z,4398.75
2018-05-23T12:22:47.478Z,4376.25
2018-05-23T12:23:47.440Z,4314.38
2018-05-23T12:24:47.397Z,4258.13
2018-05-23T12:25:47.359Z,4179.38
2018-05-23T12:26:47.313Z,4320.00
2018-05-23T12:27:47.269Z,4550.63
2018-05-23T12:28:47.300Z,4758.75
2018-05-23T12:29:47.188Z,4837.50
2018-05-23T12:30:47.147Z,4938.75
2018-05-23T12:31:47.108Z,4955.63
2018-05-23T12:32:47.061Z,4955.63
2018-05-23T12:33:47.024Z,4871.25
2018-05-23T12:34:46.984Z,4657.50
2018-05-23T12:35:46.968Z,4432.50
2018-05-23T12:36:46.900Z,4286.25
2018-05-23T12:37:46.857Z,3988.13
2018-05-23T12:38:46.816Z,4145.63
2018-05-23T12:39:46.784Z,3988.13
2018-05-23T12:40:46.736Z,4561.88
2018-05-23T12:41:46.697Z,4792.50
2018-05-23T12:42:46.655Z,4938.75
2018-05-23T12:43:46.613Z,4713.75
2018-05-23T12:44:46.577Z,4584.38
2018-05-23T12:45:46.531Z,4702.50
2018-05-23T12:46:46.488Z,4685.63
2018-05-23T12:47:46.446Z,4550.63
2018-05-23T12:48:46.411Z,4933.13
2018-05-23T12:49:46.390Z,5017.50
2018-05-23T12:50:46.322Z,4888.13
2018-05-23T12:51:46.281Z,5096.25
2018-05-23T12:52:46.244Z,5180.63
2018-05-23T12:53:46.209Z,5298.75
2018-05-23T12:54:46.170Z,5118.75
2018-05-23T12:55:46.123Z,5028.75
2018-05-23T12:56:46.081Z,4691.25
2018-05-23T12:57:46.040Z,4831.88
2018-05-23T12:58:46.009Z,4792.50
2018-05-23T12:59:45.955Z,4635.00
2018-05-23T13:00:45.928Z,4786.88
2018-05-23T13:01:45.876Z,4854.38